Погода Итапуина неделю

Сан-Паулу, Бразилия

18 - 24 июля
  • 18июля
    Сегодня
    +16°
    +29°
    Ясно и безоблачно
    ВремяПогодаТемператураВлажностьДавлениеВетер, м/сВероятность осадков
    00:00Ясно и безоблачно+18°C81 %726 мм1.9 м/с5 %
    03:00Ясно и безоблачно+16°C84 %726 мм1.8 м/с5 %
    06:00Ясно и безоблачно+17°C87 %726 мм1.8 м/с5 %
    09:00Ясно и безоблачно+20°C73 %728 мм0.8 м/с5 %
    12:00Ясно и безоблачно+27°C44 %728 мм0.7 м/с5 %
    15:00Ясно и безоблачно+29°C39 %726 мм0.9 м/с5 %
    18:00Ясно и безоблачно+26°C51 %726 мм2.7 м/с5 %
    21:00Ясно и безоблачно+23°C61 %727 мм2.6 м/с5 %
  • 19июля
    Пятница
    +16°
    +28°
    Ясно и безоблачно
    ВремяПогодаТемператураВлажностьДавлениеВетер, м/сВероятность осадков
    00:00Ясно и безоблачно+19°C70 %727 мм2.6 м/с5 %
    03:00Ясно и безоблачно+17°C91 %727 мм2.9 м/с5 %
    06:00Небольшая облачность+17°C95 %727 мм3.3 м/с5 %
    09:00Ясно и безоблачно+19°C83 %729 мм2.9 м/с5 %
    12:00Ясно и безоблачно+25°C57 %729 мм2.9 м/с5 %
    15:00Ясно и безоблачно+28°C44 %728 мм2.6 м/с5 %
    18:00Ясно и безоблачно+25°C64 %728 мм2.5 м/с5 %
    21:00Ясно и безоблачно+21°C74 %728 мм2.2 м/с5 %
  • 20июля
    Суббота
    +15°
    +28°
    Ясно и безоблачно
    ВремяПогодаТемператураВлажностьДавлениеВетер, м/сВероятность осадков
    00:00Ясно и безоблачно+18°C78 %728 мм2.3 м/с5 %
    03:00Ясно и безоблачно+17°C81 %727 мм2.8 м/с5 %
    06:00Ясно и безоблачно+17°C89 %727 мм2.3 м/с5 %
    09:00Ясно и безоблачно+19°C75 %728 мм2.2 м/с5 %
    12:00Ясно и безоблачно+25°C53 %728 мм3.2 м/с5 %
    15:00Ясно и безоблачно+28°C41 %727 мм2.6 м/с5 %
    18:00Ясно и безоблачно+24°C58 %726 мм2.3 м/с5 %
    21:00Ясно и безоблачно+22°C64 %726 мм2.6 м/с5 %
  • 21июля
    Воскресенье
    +16°
    +30°
    Ясно и безоблачно
    ВремяПогодаТемператураВлажностьДавлениеВетер, м/сВероятность осадков
    00:00Ясно и безоблачно+18°C71 %727 мм3.7 м/с5 %
    03:00Ясно и безоблачно+16°C92 %726 мм2.5 м/с5 %
    06:00Практически безоблачно+16°C96 %726 мм2.8 м/с5 %
    09:00Ясно и безоблачно+18°C80 %727 мм2.5 м/с5 %
    12:00Ясно и безоблачно+26°C53 %727 мм1.4 м/с5 %
    15:00Ясно и безоблачно+29°C42 %726 мм0.9 м/с5 %
    18:00Ясно и безоблачно+25°C62 %725 мм2.2 м/с5 %
    21:00Ясно и безоблачно+22°C79 %726 мм2.1 м/с5 %
  • 22июля
    Понедельник
    +17°
    +30°
    Ясно и безоблачно
    ВремяПогодаТемператураВлажностьДавлениеВетер, м/сВероятность осадков
    00:00Ясно и безоблачно+18°C83 %726 мм2.0 м/с5 %
    03:00Ясно и безоблачно+17°C86 %725 мм2.0 м/с5 %
    06:00Ясно и безоблачно+17°C87 %726 мм2.0 м/с5 %
    09:00Ясно и безоблачно+21°C72 %728 мм1.3 м/с5 %
    12:00Ясно и безоблачно+28°C43 %728 мм0.7 м/с5 %
    15:00Ясно и безоблачно+30°C34 %726 мм1.6 м/с5 %
    18:00Ясно и безоблачно+26°C48 %726 мм2.3 м/с5 %
    21:00Ясно и безоблачно+23°C63 %727 мм2.4 м/с5 %
Мы используем cookies
Соглашаюсь